createdAt,value
2023-02-15T00:02:58.151Z,101954.80
2023-02-15T00:08:08.034Z,101958.80
2023-02-15T00:13:17.934Z,101954.80
2023-02-15T00:18:27.493Z,101952.80
2023-02-15T00:23:37.700Z,101952.20
2023-02-15T00:28:47.329Z,101943.80
2023-02-15T00:33:56.996Z,101949.20
2023-02-15T00:39:10.547Z,101944.20
2023-02-15T00:44:21.428Z,101936.80
2023-02-15T00:49:31.373Z,101932.60
2023-02-15T00:54:41.135Z,101938.80
2023-02-15T00:59:50.918Z,101929.60
2023-02-15T01:05:00.533Z,101927.20
2023-02-15T01:10:12.356Z,101922.40
2023-02-15T01:15:23.006Z,101925.20
2023-02-15T01:20:38.049Z,101925.80
2023-02-15T01:25:47.910Z,101922.80
2023-02-15T01:30:57.768Z,101918.80
2023-02-15T01:36:08.890Z,101916.60
2023-02-15T01:41:28.406Z,101910.60
2023-02-15T01:46:43.149Z,101914.40
2023-02-15T01:51:55.297Z,101919.40
2023-02-15T01:57:19.370Z,101915.40
2023-02-15T02:02:29.527Z,101914.40
2023-02-15T02:07:43.655Z,101912.20
2023-02-15T02:12:58.530Z,101907.00
2023-02-15T02:18:27.901Z,101903.00
2023-02-15T02:24:14.198Z,101894.40
2023-02-15T02:29:49.564Z,101892.60
2023-02-15T02:35:08.661Z,101888.00
2023-02-15T02:40:28.397Z,101880.60
2023-02-15T02:45:46.929Z,101879.80
2023-02-15T02:50:56.538Z,101876.60
2023-02-15T02:56:14.001Z,101870.40
2023-02-15T03:01:30.673Z,101855.80
2023-02-15T03:06:49.432Z,101857.20
2023-02-15T03:11:59.497Z,101848.60
2023-02-15T03:17:14.134Z,101854.40
2023-02-15T03:22:31.420Z,101853.60
2023-02-15T03:27:48.233Z,101853.60
2023-02-15T03:33:01.928Z,101847.60
2023-02-15T03:38:18.125Z,101845.60
2023-02-15T03:43:39.739Z,101852.20
2023-02-15T03:48:56.376Z,101841.40
2023-02-15T03:54:10.161Z,101844.80
2023-02-15T03:59:51.846Z,101839.20
2023-02-15T04:05:01.884Z,101828.80
2023-02-15T04:10:30.585Z,101836.60
2023-02-15T04:15:58.036Z,101823.80
2023-02-15T04:21:25.372Z,101823.80
2023-02-15T04:26:35.404Z,101827.20
2023-02-15T04:31:45.408Z,101825.00
2023-02-15T04:36:55.479Z,101820.80
2023-02-15T04:42:05.600Z,101819.00
2023-02-15T04:47:15.269Z,101818.20
2023-02-15T04:52:25.537Z,101811.80
2023-02-15T04:57:35.192Z,101821.20
2023-02-15T05:02:45.044Z,101815.40
2023-02-15T05:07:55.083Z,101819.60
2023-02-15T05:13:05.097Z,101819.00
2023-02-15T05:18:14.670Z,101823.20
2023-02-15T05:23:24.316Z,101829.20
2023-02-15T05:28:34.293Z,101825.00
2023-02-15T05:33:44.438Z,101830.40
2023-02-15T05:38:54.284Z,101833.40
2023-02-15T05:44:03.934Z,101832.80
2023-02-15T05:49:13.660Z,101828.40
2023-02-15T05:54:23.159Z,101830.40
2023-02-15T05:59:33.070Z,101825.60
2023-02-15T06:04:42.602Z,101822.00
2023-02-15T06:09:52.621Z,101821.20
2023-02-15T06:15:02.304Z,101818.60
2023-02-15T06:20:14.801Z,101818.20
2023-02-15T06:25:25.789Z,101824.40
2023-02-15T06:30:36.133Z,101823.00
2023-02-15T06:35:47.457Z,101828.20
2023-02-15T06:40:57.404Z,101822.20
2023-02-15T06:46:07.270Z,101827.20
2023-02-15T06:51:17.192Z,101821.40
2023-02-15T06:56:26.973Z,101824.40
2023-02-15T07:01:38.207Z,101812.20
2023-02-15T07:06:48.324Z,101805.40
2023-02-15T07:12:16.001Z,101811.20
2023-02-15T07:17:37.109Z,101809.60
2023-02-15T07:22:47.460Z,101808.80
2023-02-15T07:28:02.369Z,101801.00
2023-02-15T07:33:28.487Z,101800.40
2023-02-15T07:38:40.020Z,101797.60
2023-02-15T07:43:50.524Z,101791.00
2023-02-15T07:49:00.447Z,101789.80
2023-02-15T07:54:10.395Z,101785.60
2023-02-15T07:59:20.575Z,101781.60
2023-02-15T08:04:30.218Z,101788.80
2023-02-15T08:09:40.062Z,101780.80
2023-02-15T08:14:50.152Z,101767.80
2023-02-15T08:19:59.887Z,101765.20
2023-02-15T08:25:11.032Z,101766.40
2023-02-15T08:30:22.108Z,101749.60
2023-02-15T08:35:31.939Z,101745.00
2023-02-15T08:40:41.731Z,101740.20
2023-02-15T08:45:51.487Z,101737.40
2023-02-15T08:51:01.387Z,101735.60
2023-02-15T08:56:12.404Z,101722.00
2023-02-15T09:01:25.270Z,101722.80
2023-02-15T09:06:35.391Z,101714.20
2023-02-15T09:11:48.110Z,101702.20
2023-02-15T09:16:58.439Z,101703.60
2023-02-15T09:22:08.178Z,101712.20
2023-02-15T09:27:18.128Z,101707.80
2023-02-15T09:32:28.003Z,101702.80
2023-02-15T09:37:37.967Z,101702.00
2023-02-15T09:43:06.854Z,101703.60
2023-02-15T09:48:46.495Z,101702.20
2023-02-15T09:54:24.293Z,101700.20
2023-02-15T09:59:48.698Z,101692.60
2023-02-15T10:05:24.576Z,101697.00
2023-02-15T10:10:46.421Z,101690.20
2023-02-15T10:16:12.893Z,101687.00
2023-02-15T10:21:41.918Z,101684.60
2023-02-15T10:26:53.134Z,101672.20
2023-02-15T10:32:16.830Z,101673.40
2023-02-15T10:37:55.412Z,101667.40
2023-02-15T10:43:30.234Z,101664.20
2023-02-15T10:49:11.145Z,101657.80
2023-02-15T10:54:39.310Z,101658.60
2023-02-15T11:00:07.720Z,101651.80
2023-02-15T11:05:38.198Z,101657.60
2023-02-15T11:10:54.218Z,101651.40
2023-02-15T11:16:10.092Z,101650.80
2023-02-15T11:21:28.824Z,101647.40
2023-02-15T11:26:45.252Z,101643.20
2023-02-15T11:32:00.310Z,101636.80
2023-02-15T11:37:17.193Z,101625.60
2023-02-15T11:42:30.442Z,101620.80
2023-02-15T11:47:40.167Z,101617.60
2023-02-15T11:52:49.968Z,101611.00
2023-02-15T11:58:08.663Z,101611.00
2023-02-15T12:03:29.858Z,101610.60
2023-02-15T12:08:46.617Z,101604.20
2023-02-15T12:14:06.468Z,101607.40
2023-02-15T12:19:41.203Z,101601.60
2023-02-15T12:24:55.443Z,101598.20
2023-02-15T12:30:14.253Z,101595.60
2023-02-15T12:35:32.268Z,101585.60
2023-02-15T12:40:43.459Z,101582.00
2023-02-15T12:45:53.343Z,101578.60
2023-02-15T12:51:16.304Z,101580.80
2023-02-15T12:56:35.076Z,101575.20
2023-02-15T13:01:47.403Z,101558.40
2023-02-15T13:07:01.025Z,101542.00
2023-02-15T13:12:27.941Z,101534.00
2023-02-15T13:17:39.011Z,101528.80
2023-02-15T13:23:01.065Z,101530.20
2023-02-15T13:28:19.023Z,101531.20
2023-02-15T13:33:39.372Z,101524.00
2023-02-15T13:39:16.991Z,101525.20
2023-02-15T13:44:54.073Z,101519.80
2023-02-15T13:50:39.858Z,101515.00
2023-02-15T13:55:57.308Z,101513.40
2023-02-15T14:01:26.644Z,101504.20
2023-02-15T14:06:59.942Z,101501.20
2023-02-15T14:12:37.047Z,101498.60
2023-02-15T14:18:02.791Z,101498.20
2023-02-15T14:23:32.310Z,101497.80
2023-02-15T14:28:51.778Z,101490.20
2023-02-15T14:34:02.218Z,101488.60
2023-02-15T14:39:49.300Z,101482.20
2023-02-15T14:45:08.888Z,101483.40
2023-02-15T14:50:47.672Z,101474.00
2023-02-15T14:56:25.972Z,101468.20
2023-02-15T15:01:38.966Z,101467.80
2023-02-15T15:07:08.160Z,101454.40
2023-02-15T15:12:43.586Z,101450.40
2023-02-15T15:18:03.885Z,101445.60
2023-02-15T15:23:47.438Z,101429.80
2023-02-15T15:29:05.966Z,101419.80
2023-02-15T15:35:02.683Z,101422.40
2023-02-15T15:40:51.356Z,101415.40
2023-02-15T15:46:33.252Z,101405.20
2023-02-15T15:51:47.613Z,101399.00
2023-02-15T15:57:01.370Z,101399.00
2023-02-15T16:02:17.236Z,101385.60
2023-02-15T16:07:34.055Z,101382.20
2023-02-15T16:12:45.187Z,101373.80
2023-02-15T16:18:00.022Z,101374.80
2023-02-15T16:23:37.424Z,101380.00
2023-02-15T16:28:54.998Z,101376.40
2023-02-15T16:34:12.577Z,101370.00
2023-02-15T16:39:26.379Z,101366.00
2023-02-15T16:44:36.765Z,101364.80
2023-02-15T16:49:51.669Z,101357.40
2023-02-15T16:55:05.897Z,101355.60
2023-02-15T17:00:38.438Z,101352.60
2023-02-15T17:05:53.084Z,101349.80
2023-02-15T17:11:24.594Z,101345.80
2023-02-15T17:16:37.840Z,101338.80
2023-02-15T17:21:53.489Z,101336.40
2023-02-15T17:27:11.300Z,101327.20
2023-02-15T17:32:27.590Z,101328.20
2023-02-15T17:37:50.474Z,101323.00
2023-02-15T17:43:00.201Z,101320.20
2023-02-15T17:48:21.319Z,101308.80
2023-02-15T17:53:31.677Z,101310.20
2023-02-15T17:58:43.732Z,101307.20
2023-02-15T18:04:12.798Z,101302.00
2023-02-15T18:09:43.186Z,101303.80
2023-02-15T18:14:54.501Z,101307.00
2023-02-15T18:20:06.823Z,101298.00
2023-02-15T18:25:22.222Z,101295.20
2023-02-15T18:30:32.573Z,101296.60
2023-02-15T18:35:42.534Z,101304.80
2023-02-15T18:40:52.449Z,101301.80
2023-02-15T18:46:02.340Z,101302.60
2023-02-15T18:51:22.466Z,101297.20
2023-02-15T18:56:34.338Z,101291.20
2023-02-15T19:01:44.214Z,101289.60
2023-02-15T19:06:56.013Z,101292.60
2023-02-15T19:12:05.806Z,101278.40
2023-02-15T19:17:22.831Z,101282.60
2023-02-15T19:22:35.189Z,101280.40
2023-02-15T19:27:46.799Z,101265.20
2023-02-15T19:32:56.875Z,101262.00
2023-02-15T19:38:13.974Z,101251.00
2023-02-15T19:43:27.226Z,101247.00
2023-02-15T19:48:36.960Z,101246.80
2023-02-15T19:53:47.056Z,101242.20
2023-02-15T19:58:58.030Z,101244.20
2023-02-15T20:04:08.197Z,101235.20
2023-02-15T20:09:26.778Z,101230.60
2023-02-15T20:14:36.644Z,101225.80
2023-02-15T20:19:47.711Z,101219.40
2023-02-15T20:24:59.343Z,101197.80
2023-02-15T20:30:18.722Z,101181.40
2023-02-15T20:35:31.301Z,101184.20
2023-02-15T20:41:02.504Z,101187.20
2023-02-15T20:46:12.863Z,101195.60
2023-02-15T20:51:24.430Z,101195.80
2023-02-15T20:56:35.017Z,101182.20
2023-02-15T21:01:45.465Z,101190.80
2023-02-15T21:06:56.628Z,101202.00
2023-02-15T21:12:08.182Z,101194.40
2023-02-15T21:17:20.974Z,101186.00
2023-02-15T21:22:40.433Z,101173.60
2023-02-15T21:27:50.572Z,101163.20
2023-02-15T21:33:00.565Z,101157.80
2023-02-15T21:38:15.510Z,101152.80
2023-02-15T21:43:45.578Z,101151.20
2023-02-15T21:48:55.189Z,101151.40
2023-02-15T21:54:05.099Z,101147.00
2023-02-15T21:59:17.790Z,101143.60
2023-02-15T22:04:30.587Z,101149.80
2023-02-15T22:09:41.032Z,101142.60
2023-02-15T22:14:54.555Z,101126.80
2023-02-15T22:20:04.287Z,101133.20
2023-02-15T22:25:17.496Z,101119.60
2023-02-15T22:30:33.476Z,101114.40
2023-02-15T22:35:43.543Z,101116.80
2023-02-15T22:40:56.344Z,101115.40
2023-02-15T22:46:15.409Z,101106.80
2023-02-15T22:51:27.705Z,101097.80
2023-02-15T22:56:43.642Z,101093.80
2023-02-15T23:01:54.599Z,101091.60
2023-02-15T23:07:07.556Z,101084.40
2023-02-15T23:12:51.861Z,101073.20
2023-02-15T23:18:08.539Z,101068.40
2023-02-15T23:23:19.877Z,101061.60
2023-02-15T23:28:35.587Z,101072.00
2023-02-15T23:33:45.912Z,101069.60
2023-02-15T23:38:56.032Z,101060.80
2023-02-15T23:44:07.284Z,101065.60
2023-02-15T23:49:20.092Z,101058.40
2023-02-15T23:54:30.445Z,101060.80
2023-02-15T23:59:43.534Z,101061.20
